Terminal Aerodrome Forecast
Issued by NWS Cleveland, OH

Home | Current Version | Previous Version | Graphics & Text | Print | Product List | Glossary Off
Versions: 1 2 3 4 5 6 7 8 9 10 11 12 13 14 15 16 17 18 19 20 21

000
FTUS41 KCLE 311300 AAA
TAFCAK
TAF AMD
KCAK 311340Z 3114/0112 22010KT 4SM -RA BR BKN004 OVC015
     FM311800 22010KT P6SM VCSH SCT006 OVC015
     FM312200 23010KT P6SM OVC020
     FM010600 21005KT 5SM BR OVC012=

USA.gov is the U.S. government's official web portal to all federal, state and local government web resources and services.